createdAt,value
2023-02-25T00:06:01.007Z,22.3
2023-02-25T00:17:48.047Z,22.2
2023-02-25T00:23:41.302Z,22.3
2023-02-25T00:29:42.669Z,22.2
2023-02-25T00:35:35.844Z,22.1
2023-02-25T00:41:34.964Z,22.1
2023-02-25T00:47:28.499Z,22.1
2023-02-25T00:53:12.508Z,22.1
2023-02-25T00:59:05.807Z,22.1
2023-02-25T01:05:05.040Z,22.1
2023-02-25T01:11:00.878Z,22
2023-02-25T01:22:01.822Z,22
2023-02-25T01:27:54.984Z,21.9
2023-02-25T01:33:50.265Z,21.9
2023-02-25T01:39:43.260Z,21.9
2023-02-25T01:45:36.052Z,21.9
2023-02-25T01:51:29.492Z,21.9
2023-02-25T01:57:23.449Z,21.8
2023-02-25T02:03:16.090Z,21.8
2023-02-25T02:09:10.090Z,21.8
2023-02-25T02:15:03.513Z,21.8
2023-02-25T02:20:56.182Z,21.8
2023-02-25T02:26:49.192Z,21.8
2023-02-25T02:32:26.929Z,21.7
2023-02-25T02:38:19.772Z,21.7
2023-02-25T02:43:57.585Z,21.7
2023-02-25T02:49:50.427Z,21.7
2023-02-25T03:01:20.591Z,21.6
2023-02-25T03:06:59.061Z,21.6
2023-02-25T03:12:36.112Z,21.6
2023-02-25T03:17:59.037Z,21.6
2023-02-25T03:23:37.819Z,21.6
2023-02-25T03:29:14.615Z,21.6
2023-02-25T03:34:52.852Z,21.6
2023-02-25T03:40:29.402Z,21.6
2023-02-25T03:46:07.230Z,21.6
2023-02-25T04:03:01.307Z,21.5
2023-02-25T04:08:39.589Z,21.5
2023-02-25T04:19:54.015Z,21.4
2023-02-25T04:25:46.651Z,21.4
2023-02-25T04:31:10.259Z,21.4
2023-02-25T04:37:04.757Z,21.4
2023-02-25T04:42:58.486Z,21.4
2023-02-25T04:48:52.835Z,21.4
2023-02-25T04:54:46.740Z,21.4
2023-02-25T05:00:38.916Z,21.4
2023-02-25T05:06:32.463Z,21.4
2023-02-25T05:12:27.488Z,21.4
2023-02-25T05:17:50.977Z,21.4
2023-02-25T05:23:44.164Z,21.4
2023-02-25T05:29:36.941Z,21.4
2023-02-25T05:35:15.498Z,21.4
2023-02-25T05:40:53.169Z,21.4
2023-02-25T05:46:45.935Z,21.4
2023-02-25T05:52:23.589Z,21.4
2023-02-25T05:57:59.807Z,21.4
2023-02-25T06:03:37.960Z,21.4
2023-02-25T06:09:15.570Z,21.4
2023-02-25T06:14:52.273Z,21.4
2023-02-25T06:20:46.098Z,21.3
2023-02-25T06:26:24.624Z,21.4
2023-02-25T06:32:18.254Z,21.4
2023-02-25T06:37:40.945Z,21.4
2023-02-25T06:43:34.482Z,21.4
2023-02-25T06:49:13.261Z,21.4
2023-02-25T06:54:50.592Z,21.4
2023-02-25T07:00:28.945Z,21.4
2023-02-25T07:06:23.177Z,21.4
2023-02-25T07:11:45.620Z,21.4
2023-02-25T07:17:08.747Z,21.4
2023-02-25T07:22:45.545Z,21.4
2023-02-25T07:28:37.641Z,21.4
2023-02-25T07:34:32.543Z,21.4
2023-02-25T07:40:25.890Z,21.4
2023-02-25T07:46:18.024Z,21.4
2023-02-25T07:52:10.930Z,21.4
2023-02-25T07:58:06.931Z,21.4
2023-02-25T08:04:01.130Z,21.4
2023-02-25T08:09:56.412Z,21.5
2023-02-25T08:15:49.226Z,21.5
2023-02-25T08:21:42.802Z,21.5
2023-02-25T08:27:36.354Z,21.5
2023-02-25T08:33:31.441Z,21.5
2023-02-25T08:39:09.733Z,21.5
2023-02-25T08:45:05.107Z,21.5
2023-02-25T08:50:57.787Z,21.5
2023-02-25T08:56:51.009Z,21.6
2023-02-25T09:02:43.352Z,21.4
2023-02-25T09:08:39.410Z,21.4
2023-02-25T09:14:45.591Z,21.4
2023-02-25T09:20:23.483Z,21.5
2023-02-25T09:26:15.681Z,21.4
2023-02-25T09:32:09.036Z,21.4
2023-02-25T09:38:02.579Z,21.4
2023-02-25T09:43:55.262Z,21.4
2023-02-25T09:49:35.775Z,21.4
2023-02-25T09:55:13.966Z,21.4
2023-02-25T10:00:50.588Z,21.4
2023-02-25T10:06:29.576Z,21.4
2023-02-25T10:12:07.241Z,21.4
2023-02-25T10:23:26.459Z,21.4
2023-02-25T10:29:03.003Z,21.4
2023-02-25T10:34:56.789Z,21.4
2023-02-25T10:40:49.223Z,21.4
2023-02-25T10:46:42.879Z,21.4
2023-02-25T10:52:41.699Z,21.4
2023-02-25T10:58:34.893Z,21.4
2023-02-25T11:04:29.027Z,21.4
2023-02-25T11:10:21.386Z,21.4
2023-02-25T11:16:32.656Z,21.4
2023-02-25T11:22:28.602Z,21.5
2023-02-25T11:28:20.376Z,21.5
2023-02-25T11:34:17.349Z,21.5
2023-02-25T11:40:13.962Z,21.6
2023-02-25T11:46:06.666Z,21.6
2023-02-25T11:51:59.889Z,21.5
2023-02-25T11:57:21.873Z,21.6
2023-02-25T12:03:14.772Z,21.6
2023-02-25T12:09:22.389Z,21.5
2023-02-25T12:15:14.140Z,21.6
2023-02-25T12:20:51.628Z,21.6
2023-02-25T12:26:45.238Z,21.5
2023-02-25T12:32:37.824Z,21.6
2023-02-25T12:38:31.800Z,21.5
2023-02-25T12:44:27.491Z,21.5
2023-02-25T12:50:20.866Z,21.6
2023-02-25T12:56:14.659Z,21.6
2023-02-25T13:01:53.274Z,21.6
2023-02-25T13:07:46.575Z,21.6
2023-02-25T13:14:05.719Z,21.6
2023-02-25T13:19:58.535Z,21.6
2023-02-25T13:25:51.821Z,21.6
2023-02-25T13:31:45.086Z,21.6
2023-02-25T13:37:39.154Z,21.6
2023-02-25T13:43:16.241Z,21.6
2023-02-25T13:49:08.692Z,21.6
2023-02-25T13:55:04.426Z,21.6
2023-02-25T14:00:56.928Z,21.6
2023-02-25T14:06:49.152Z,21.6
2023-02-25T14:12:46.898Z,21.6
2023-02-25T14:18:40.048Z,21.6
2023-02-25T14:24:33.681Z,21.5
2023-02-25T14:29:56.509Z,21.5
2023-02-25T14:35:49.908Z,21.5
2023-02-25T14:41:43.181Z,21.5
2023-02-25T14:47:35.698Z,21.5
2023-02-25T14:53:28.596Z,21.5
2023-02-25T14:59:21.023Z,21.5
2023-02-25T15:05:16.448Z,21.4
2023-02-25T15:11:09.666Z,21.4
2023-02-25T15:17:02.565Z,21.4
2023-02-25T15:22:41.253Z,21.4
2023-02-25T15:28:33.723Z,21.4
2023-02-25T15:34:28.989Z,21.4
2023-02-25T15:40:21.307Z,21.6
2023-02-25T15:46:16.683Z,21.6
2023-02-25T15:51:38.260Z,21.6
2023-02-25T15:57:31.692Z,21.7
2023-02-25T16:03:14.440Z,21.7
2023-02-25T16:09:07.149Z,21.6
2023-02-25T16:14:59.558Z,21.6
2023-02-25T16:20:54.121Z,21.7
2023-02-25T16:26:46.465Z,21.8
2023-02-25T16:32:40.519Z,21.8
2023-02-25T16:44:23.727Z,21.9
2023-02-25T16:50:17.178Z,21.9
2023-02-25T16:56:10.918Z,21.9
2023-02-25T17:01:48.045Z,21.9
2023-02-25T17:07:42.093Z,21.9
2023-02-25T17:13:34.902Z,21.9
2023-02-25T17:19:28.659Z,21.9
2023-02-25T17:25:07.213Z,21.9
2023-02-25T17:31:01.352Z,21.9
2023-02-25T17:36:55.829Z,22
2023-02-25T17:42:51.410Z,22.1
2023-02-25T17:48:45.528Z,22.1
2023-02-25T17:54:39.870Z,22.1
2023-02-25T18:00:35.456Z,22.2
2023-02-25T18:06:29.981Z,22.3
2023-02-25T18:12:24.158Z,22.4
2023-02-25T18:18:28.637Z,22.4
2023-02-25T18:24:22.761Z,22.5
2023-02-25T18:30:16.343Z,22.6
2023-02-25T18:35:57.349Z,22.6
2023-02-25T18:41:52.148Z,22.6
2023-02-25T18:47:46.965Z,22.7
2023-02-25T18:53:41.487Z,22.8
2023-02-25T18:59:34.975Z,22.8
2023-02-25T19:05:12.952Z,22.9
2023-02-25T19:11:06.634Z,22.9
2023-02-25T19:17:01.511Z,23.1
2023-02-25T19:22:54.513Z,23.1
2023-02-25T19:28:47.578Z,23.1
2023-02-25T19:40:20.486Z,23.2
2023-02-25T19:46:14.673Z,23.2
2023-02-25T19:52:08.395Z,23.3
2023-02-25T19:58:03.009Z,23.3
2023-02-25T20:03:56.850Z,23.4
2023-02-25T20:09:51.539Z,23.4
2023-02-25T20:15:44.645Z,23.4
2023-02-25T20:21:40.049Z,23.5
2023-02-25T20:27:36.318Z,23.5
2023-02-25T20:33:29.688Z,23.6
2023-02-25T20:39:11.071Z,23.6
2023-02-25T20:45:06.765Z,23.6
2023-02-25T20:50:59.909Z,23.6
2023-02-25T20:56:52.858Z,23.6
2023-02-25T21:02:46.278Z,23.6
2023-02-25T21:08:41.087Z,23.6
2023-02-25T21:14:35.761Z,23.7
2023-02-25T21:20:29.038Z,23.6
2023-02-25T21:26:22.798Z,23.6
2023-02-25T21:32:17.182Z,23.6
2023-02-25T21:38:11.891Z,23.6
2023-02-25T21:44:04.817Z,23.6
2023-02-25T21:49:58.007Z,23.6
2023-02-25T21:55:50.232Z,23.6
2023-02-25T22:01:43.048Z,23.6
2023-02-25T22:07:37.460Z,23.5
2023-02-25T22:13:30.111Z,23.5
2023-02-25T22:19:22.959Z,23.5
2023-02-25T22:25:17.433Z,23.4
2023-02-25T22:31:11.924Z,23.4
2023-02-25T22:42:41.970Z,23.3
2023-02-25T22:48:19.939Z,23.3
2023-02-25T22:54:10.849Z,23.3
2023-02-25T23:00:03.634Z,23.3
2023-02-25T23:05:55.346Z,23.3
2023-02-25T23:12:02.172Z,23.2
2023-02-25T23:17:57.671Z,23.2
2023-02-25T23:23:50.001Z,23.1
2023-02-25T23:29:42.416Z,23.1
2023-02-25T23:35:35.766Z,23.1
2023-02-25T23:41:30.236Z,23.1
2023-02-25T23:47:26.731Z,23
2023-02-25T23:53:20.194Z,23
2023-02-25T23:59:13.808Z,23
